Time;durP1;ratioP1;P1;durP2;ratioP2;P2;SDS_P1;SDS_P2;PMS_P1;PMS_P2;Temp;Humidity;BMP_temperature;BMP_pressure;BME280_temperature;BME280_humidity;BME280_pressure;Samples;Min_cycle;Max_cycle;Signal;HPM_P1;HPM_P2
2023/06/29 00:01:44;;;;;;;16.38;11.88;;;;;;;22.07;66.84;101598.59;5015584;28;20388;-51
2023/06/29 00:04:09;;;;;;;18.50;13.02;;;;;;;22.08;66.58;101600.28;5016750;28;20480;-51
2023/06/29 00:06:37;;;;;;;15.75;11.65;;;;;;;22.09;66.41;101598.44;5020085;28;20034;-49
2023/06/29 00:09:05;;;;;;;15.98;12.45;;;;;;;22.08;66.28;101597.56;5011887;28;20132;-51
2023/06/29 00:11:31;;;;;;;15.93;11.73;;;;;;;22.08;66.45;101592.16;5016654;28;20029;-51
2023/06/29 00:13:56;;;;;;;17.73;12.95;;;;;;;22.08;66.88;101592.16;5020052;28;20029;-50
2023/06/29 00:16:22;;;;;;;14.43;12.10;;;;;;;22.08;66.87;101585.88;5012037;28;20111;-51
2023/06/29 00:18:49;;;;;;;16.90;12.57;;;;;;;22.08;66.45;101580.47;5018781;28;20049;-50
2023/06/29 00:21:15;;;;;;;17.30;12.10;;;;;;;22.08;66.73;101581.28;5015342;28;20030;-51
2023/06/29 00:23:40;;;;;;;17.48;11.77;;;;;;;22.08;66.51;101575.03;5013396;28;20025;-51
2023/06/29 00:26:06;;;;;;;18.00;12.07;;;;;;;22.08;66.81;101575.03;5020378;28;20040;-51
2023/06/29 00:28:31;;;;;;;19.38;12.90;;;;;;;22.08;66.73;101570.44;5016307;28;20041;-50
2023/06/29 00:30:57;;;;;;;16.20;11.77;;;;;;;22.07;66.43;101579.63;5013877;28;20428;-50
2023/06/29 00:33:22;;;;;;;18.38;12.38;;;;;;;22.07;67.00;101568.75;5015320;28;20033;-49
2023/06/29 00:35:48;;;;;;;18.55;12.18;;;;;;;22.07;66.35;101571.47;5016842;28;20042;-51
2023/06/29 00:38:13;;;;;;;17.58;12.68;;;;;;;22.06;66.46;101562.47;5012849;28;20022;-49
2023/06/29 00:40:38;;;;;;;16.23;12.27;;;;;;;22.08;66.78;101561.47;5015794;28;20108;-49
2023/06/29 00:43:04;;;;;;;18.55;13.10;;;;;;;22.06;67.11;101565.19;5019746;28;20042;-51
2023/06/29 00:45:29;;;;;;;18.05;12.80;;;;;;;22.06;66.91;101561.63;5015006;28;20038;-51
2023/06/29 00:47:55;;;;;;;15.75;12.38;;;;;;;22.07;66.81;101555.19;5015604;28;20543;-51
2023/06/29 00:50:21;;;;;;;17.45;11.88;;;;;;;22.05;66.99;101566.19;5016062;28;20120;-51
2023/06/29 00:52:47;;;;;;;18.05;11.95;;;;;;;22.06;66.61;101567.03;5018969;28;20053;-51
2023/06/29 00:55:12;;;;;;;19.20;12.10;;;;;;;22.06;66.96;101569.75;5019690;28;20092;-50
2023/06/29 00:57:39;;;;;;;15.95;12.23;;;;;;;22.06;66.90;101561.63;5021104;28;20030;-51
2023/06/29 01:00:10;;;;;;;17.38;12.88;;;;;;;22.05;66.67;101558.06;5020768;28;20478;-50
2023/06/29 01:02:40;;;;;;;15.50;12.30;;;;;;;22.05;66.93;101552.63;5022484;28;20422;-48
2023/06/29 01:05:09;;;;;;;17.50;12.48;;;;;;;22.05;67.10;101552.63;5020015;28;20119;-50
2023/06/29 01:07:53;;;;;;;16.75;11.70;;;;;;;22.05;66.94;101539.09;5022408;28;20037;-51
2023/06/29 01:10:27;;;;;;;17.75;12.07;;;;;;;22.05;67.00;101535.53;5024012;28;20033;-51
2023/06/29 01:12:53;;;;;;;16.13;12.65;;;;;;;22.06;66.85;101539.94;5020646;28;20025;-51
2023/06/29 01:15:21;;;;;;;17.42;12.57;;;;;;;22.05;67.04;101547.22;5020127;28;20026;-50
2023/06/29 01:17:50;;;;;;;21.23;12.68;;;;;;;22.05;66.44;101549.09;5017576;28;20115;-50
2023/06/29 01:20:16;;;;;;;19.60;13.10;;;;;;;22.05;66.87;101549.09;5019099;28;20137;-50
2023/06/29 01:22:53;;;;;;;19.83;12.95;;;;;;;22.04;66.71;101537.38;5023387;28;20533;-49
2023/06/29 01:25:20;;;;;;;16.85;13.13;;;;;;;22.04;66.63;101536.53;5021964;28;20031;-51
2023/06/29 01:27:46;;;;;;;16.67;13.75;;;;;;;22.05;66.34;101536.38;5028826;28;20033;-51
2023/06/29 01:30:13;;;;;;;18.65;13.02;;;;;;;22.05;66.72;101539.09;5014924;28;20384;-49
2023/06/29 01:32:39;;;;;;;16.17;12.90;;;;;;;22.06;66.63;101535.34;5018288;28;20068;-50
2023/06/29 01:35:09;;;;;;;17.88;13.40;;;;;;;22.04;66.79;101531.94;5019073;28;20036;-50
2023/06/29 01:37:52;;;;;;;19.13;13.27;;;;;;;22.06;66.60;101531.78;5018868;28;20117;-50
2023/06/29 01:40:22;;;;;;;15.80;12.15;;;;;;;22.05;66.58;101532.81;5021345;28;20029;-50
2023/06/29 01:42:49;;;;;;;18.15;13.43;;;;;;;22.04;66.67;101531.94;5019592;28;20060;-51
2023/06/29 01:45:17;;;;;;;17.08;12.48;;;;;;;22.04;66.67;101526.50;5016297;28;20029;-50
2023/06/29 01:47:42;;;;;;;16.75;12.82;;;;;;;22.05;66.28;101516.53;5017375;28;20022;-50
2023/06/29 01:50:09;;;;;;;19.60;13.02;;;;;;;22.05;66.50;101528.22;5020369;28;20034;-50
2023/06/29 01:52:34;;;;;;;20.08;13.85;;;;;;;22.05;66.64;101527.38;5015836;28;20037;-50
2023/06/29 01:55:00;;;;;;;21.30;12.93;;;;;;;22.04;66.17;101523.81;5018550;28;20030;-51
2023/06/29 01:57:25;;;;;;;20.50;12.93;;;;;;;22.04;66.04;101521.09;5020050;28;20038;-52
2023/06/29 01:59:50;;;;;;;17.40;13.45;;;;;;;22.05;65.99;101521.97;5022439;28;20638;-49
2023/06/29 02:02:16;;;;;;;17.10;12.65;;;;;;;22.04;66.14;101521.09;5016522;28;20084;-49
2023/06/29 02:04:41;;;;;;;17.92;12.90;;;;;;;22.05;66.49;101516.53;5019934;28;20048;-51
2023/06/29 02:07:06;;;;;;;19.23;13.93;;;;;;;22.05;66.07;101513.84;5018067;28;20029;-50
2023/06/29 02:09:32;;;;;;;20.27;13.00;;;;;;;22.05;65.99;101516.53;5018241;28;20045;-51
2023/06/29 02:11:57;;;;;;;16.88;13.20;;;;;;;22.04;66.43;101512.13;5016493;28;20065;-51
2023/06/29 02:14:23;;;;;;;16.60;12.60;;;;;;;22.05;66.38;101508.41;5020261;28;20034;-51
2023/06/29 02:16:52;;;;;;;17.13;13.23;;;;;;;22.03;66.42;101513.97;5018675;28;20399;-51
2023/06/29 02:19:17;;;;;;;17.77;13.95;;;;;;;22.04;66.55;101506.69;5022327;28;20065;-50
2023/06/29 02:21:42;;;;;;;18.77;13.38;;;;;;;22.03;65.98;101503.13;5016757;28;20074;-50
2023/06/29 02:24:08;;;;;;;18.88;13.90;;;;;;;22.04;66.02;101512.97;5018396;28;20116;-51
2023/06/29 02:26:33;;;;;;;20.60;13.40;;;;;;;22.04;66.45;101509.41;5021441;28;20530;-51
2023/06/29 02:28:58;;;;;;;17.13;12.43;;;;;;;22.04;65.87;101507.53;5022524;28;20356;-50
2023/06/29 02:31:24;;;;;;;17.73;13.10;;;;;;;22.04;66.48;101504.81;5018632;28;20587;-50
2023/06/29 02:33:50;;;;;;;16.23;13.35;;;;;;;22.04;66.43;101503.97;5021215;28;20037;-50
2023/06/29 02:36:15;;;;;;;18.45;13.77;;;;;;;22.04;66.51;101499.41;5016615;28;20022;-49
2023/06/29 02:38:41;;;;;;;19.45;13.95;;;;;;;22.04;66.39;101495.84;5018417;28;20026;-50
2023/06/29 02:41:06;;;;;;;19.55;14.52;;;;;;;22.04;66.43;101498.56;5018125;28;20025;-49
2023/06/29 02:43:33;;;;;;;16.10;13.30;;;;;;;22.03;66.33;101492.28;5016164;28;20088;-51
2023/06/29 02:45:59;;;;;;;19.77;14.27;;;;;;;22.03;66.46;101486.88;5016887;28;20432;-49
2023/06/29 02:48:24;;;;;;;19.60;13.23;;;;;;;22.04;66.32;101487.72;5016566;28;20030;-52
2023/06/29 02:50:49;;;;;;;21.00;14.25;;;;;;;22.04;65.93;101479.56;5017702;28;20030;-50
2023/06/29 02:53:16;;;;;;;20.08;14.65;;;;;;;22.04;66.11;101479.56;5018449;28;20030;-49
2023/06/29 02:55:41;;;;;;;19.10;14.23;;;;;;;22.02;66.44;101479.72;5020964;28;20476;-51
2023/06/29 02:58:07;;;;;;;19.98;14.10;;;;;;;22.03;66.24;101480.59;5020664;28;20032;-50
2023/06/29 03:00:32;;;;;;;24.38;14.30;;;;;;;22.03;65.98;101486.03;5018960;28;20029;-50
2023/06/29 03:02:57;;;;;;;20.83;14.35;;;;;;;22.03;66.23;101486.03;5019345;28;20557;-49
2023/06/29 03:05:23;;;;;;;20.15;13.68;;;;;;;22.03;66.30;101483.31;5019931;28;20032;-50
2023/06/29 03:07:48;;;;;;;17.35;12.90;;;;;;;22.03;65.70;101478.72;5019426;28;20049;-51
2023/06/29 03:10:14;;;;;;;20.58;13.65;;;;;;;22.04;65.79;101476.84;5015641;28;20384;-50
2023/06/29 03:12:41;;;;;;;18.25;14.35;;;;;;;22.02;65.72;101482.44;5017610;28;20030;-50
2023/06/29 03:15:07;;;;;;;17.67;13.68;;;;;;;22.03;65.80;101480.59;5015361;28;20053;-50
2023/06/29 03:17:32;;;;;;;19.65;13.80;;;;;;;22.02;65.64;101477.00;5012897;28;20089;-50
2023/06/29 03:19:57;;;;;;;20.05;13.80;;;;;;;22.02;65.75;101466.16;5013752;28;20176;-50
2023/06/29 03:22:25;;;;;;;19.83;14.43;;;;;;;22.02;65.79;101470.75;5020470;28;20061;-49
2023/06/29 03:24:50;;;;;;;21.80;13.60;;;;;;;22.02;66.02;101474.28;5013429;28;20038;-47
2023/06/29 03:27:15;;;;;;;23.38;14.98;;;;;;;22.02;66.04;101462.59;5022057;28;20446;-51
2023/06/29 03:29:41;;;;;;;19.60;14.52;;;;;;;22.01;65.70;101467.19;5019098;28;20034;-50
2023/06/29 03:32:07;;;;;;;21.60;14.35;;;;;;;22.01;65.97;101464.47;5012267;28;20030;-50
2023/06/29 03:34:32;;;;;;;19.38;13.73;;;;;;;22.02;66.00;101468.03;5015082;28;20041;-49
2023/06/29 03:36:57;;;;;;;18.27;13.88;;;;;;;22.02;66.00;101462.59;5016344;28;20145;-50
2023/06/29 03:39:23;;;;;;;21.10;14.20;;;;;;;22.02;65.64;101463.44;5013480;28;20029;-50
2023/06/29 03:41:48;;;;;;;19.98;13.70;;;;;;;22.02;65.47;101459.91;5018828;28;20063;-48
2023/06/29 03:44:13;;;;;;;18.85;14.05;;;;;;;22.02;65.89;101468.03;5016795;28;20545;-50
2023/06/29 03:46:39;;;;;;;18.75;13.73;;;;;;;22.02;65.72;101465.31;5013087;28;20038;-47
2023/06/29 03:49:04;;;;;;;16.88;13.57;;;;;;;22.01;65.43;101466.34;5015978;28;20042;-50
2023/06/29 03:51:30;;;;;;;19.63;13.82;;;;;;;22.02;65.75;101473.44;5018961;28;20112;-50
2023/06/29 03:53:55;;;;;;;19.50;14.90;;;;;;;22.01;65.96;101461.78;5012565;28;20109;-49
2023/06/29 03:56:20;;;;;;;19.77;14.35;;;;;;;22.02;65.44;101465.31;5017083;28;20456;-50
2023/06/29 03:58:46;;;;;;;24.05;16.15;;;;;;;22.01;65.70;101461.78;5020596;28;20045;-49
2023/06/29 04:01:11;;;;;;;19.75;14.52;;;;;;;22.02;65.70;101465.31;5015447;28;20080;-51
2023/06/29 04:03:36;;;;;;;20.38;14.18;;;;;;;22.01;65.54;101456.34;5017031;28;20030;-51
2023/06/29 04:06:03;;;;;;;19.20;14.65;;;;;;;22.02;66.02;101459.91;5014219;28;20182;-52
2023/06/29 04:08:28;;;;;;;21.52;15.45;;;;;;;22.01;65.53;101456.34;5017448;28;20435;-50
2023/06/29 04:10:54;;;;;;;18.65;14.07;;;;;;;22.00;66.04;101443.78;5018363;28;20038;-49
2023/06/29 04:13:19;;;;;;;19.67;14.25;;;;;;;22.00;65.60;101442.94;5016354;28;20034;-51
2023/06/29 04:15:45;;;;;;;21.48;14.93;;;;;;;22.01;66.01;101450.06;5016603;28;20025;-51
2023/06/29 04:18:10;;;;;;;20.30;14.38;;;;;;;22.01;65.40;101447.38;5014147;28;20033;-50
2023/06/29 04:20:36;;;;;;;18.98;14.32;;;;;;;22.01;65.45;101447.38;5017576;28;20440;-50
2023/06/29 04:23:02;;;;;;;19.60;14.90;;;;;;;22.01;65.43;101436.53;5013319;28;20041;-50
2023/06/29 04:25:27;;;;;;;20.10;14.65;;;;;;;22.01;65.63;101442.78;5021177;28;20025;-50
2023/06/29 04:27:52;;;;;;;24.88;14.73;;;;;;;22.01;65.87;101442.78;5026496;28;20468;-51
2023/06/29 04:30:18;;;;;;;22.95;15.43;;;;;;;22.01;65.69;101448.22;5016366;28;20353;-48
2023/06/29 04:32:44;;;;;;;19.45;15.10;;;;;;;22.00;65.75;101446.50;5021702;28;20091;-51
2023/06/29 04:35:09;;;;;;;21.40;15.07;;;;;;;22.00;65.73;101441.06;5020104;28;20036;-51
2023/06/29 04:37:40;;;;;;;23.08;15.30;;;;;;;22.01;65.94;101447.38;5019632;28;20026;-51
2023/06/29 04:40:09;;;;;;;22.35;14.88;;;;;;;22.01;66.00;101439.22;5020216;28;20037;-49
2023/06/29 04:42:43;;;;;;;21.48;14.93;;;;;;;22.00;65.42;101438.34;5023531;28;20037;-51
2023/06/29 04:45:17;;;;;;;20.95;14.15;;;;;;;22.00;65.54;101437.50;5023857;28;20124;-49
2023/06/29 04:47:44;;;;;;;24.10;15.20;;;;;;;22.01;65.34;101433.81;5023790;28;20033;-50
2023/06/29 04:50:10;;;;;;;22.95;15.10;;;;;;;22.01;65.91;101431.94;5020630;28;20032;-50
2023/06/29 04:52:36;;;;;;;22.42;15.60;;;;;;;22.01;66.00;101429.22;5018947;28;20026;-49
2023/06/29 04:55:04;;;;;;;19.75;15.10;;;;;;;22.01;65.56;101437.34;5026866;28;20099;-51
2023/06/29 04:57:29;;;;;;;22.27;15.40;;;;;;;22.01;65.69;101436.53;5019489;28;20033;-49
2023/06/29 04:59:55;;;;;;;20.05;14.98;;;;;;;22.02;65.40;101430.06;5023139;28;20121;-50
2023/06/29 05:02:20;;;;;;;21.30;15.52;;;;;;;22.01;65.66;101431.94;5020285;28;20033;-50
2023/06/29 05:04:45;;;;;;;19.02;14.15;;;;;;;22.01;65.81;101431.09;5022989;28;20037;-51
2023/06/29 05:07:11;;;;;;;22.48;15.15;;;;;;;22.02;65.45;101435.50;5021822;28;20436;-50
2023/06/29 05:09:36;;;;;;;22.13;15.98;;;;;;;22.01;65.49;101429.22;5015158;28;20041;-50
2023/06/29 05:12:02;;;;;;;23.38;15.18;;;;;;;22.03;65.80;101439.91;5019257;28;20360;-49
2023/06/29 05:14:27;;;;;;;20.45;15.35;;;;;;;22.01;65.79;101433.81;5022876;28;20042;-46
2023/06/29 05:16:52;;;;;;;20.10;14.45;;;;;;;22.01;65.41;101433.81;5019995;28;20050;-48
2023/06/29 05:19:18;;;;;;;23.48;15.52;;;;;;;22.01;65.93;101428.38;5018747;28;20577;-49
2023/06/29 05:21:43;;;;;;;21.27;15.80;;;;;;;22.02;65.24;101430.06;5018146;28;20038;-51
2023/06/29 05:24:08;;;;;;;20.77;15.05;;;;;;;22.02;66.00;101430.06;5019802;28;20038;-51
2023/06/29 05:26:34;;;;;;;22.27;15.20;;;;;;;22.02;65.33;101424.66;5028035;28;20059;-51
2023/06/29 05:29:00;;;;;;;20.45;14.45;;;;;;;22.01;65.53;101425.66;5017736;28;20353;-50
2023/06/29 05:31:25;;;;;;;25.85;16.50;;;;;;;22.01;65.82;101425.66;5021591;28;20105;-50
2023/06/29 05:33:51;;;;;;;24.88;15.82;;;;;;;22.02;65.68;101419.22;5017953;28;20144;-51
2023/06/29 05:36:16;;;;;;;21.73;15.55;;;;;;;22.02;65.61;101425.50;5013517;28;20037;-51
2023/06/29 05:38:42;;;;;;;22.45;14.73;;;;;;;22.01;65.81;101421.09;5019517;28;20037;-51
2023/06/29 05:41:07;;;;;;;23.90;16.10;;;;;;;22.02;65.79;101427.34;5016952;28;20419;-50
2023/06/29 05:43:32;;;;;;;21.17;15.30;;;;;;;22.02;65.72;101422.78;5021298;28;20037;-50
2023/06/29 05:45:58;;;;;;;20.42;15.50;;;;;;;22.02;65.45;101422.78;5022031;28;20111;-49
2023/06/29 05:48:23;;;;;;;21.08;14.85;;;;;;;22.02;65.28;101416.50;5018290;28;20491;-49
2023/06/29 05:50:48;;;;;;;28.77;15.80;;;;;;;22.02;65.34;101420.06;5016445;28;20052;-50
2023/06/29 05:53:14;;;;;;;19.88;15.48;;;;;;;22.03;65.41;101418.22;5021663;28;20503;-50
2023/06/29 05:55:39;;;;;;;24.30;16.58;;;;;;;22.03;65.48;101418.22;5018898;28;20137;-50
2023/06/29 05:58:04;;;;;;;23.90;15.60;;;;;;;22.02;65.57;101419.22;5015892;28;20037;-50
2023/06/29 06:00:30;;;;;;;22.67;15.95;;;;;;;22.03;65.67;101418.22;5021869;28;20033;-48
2023/06/29 06:02:55;;;;;;;24.23;16.17;;;;;;;22.02;65.57;101420.06;5023360;28;20092;-50
2023/06/29 06:05:20;;;;;;;24.40;16.33;;;;;;;22.03;65.43;101418.22;5017672;28;20112;-49
2023/06/29 06:07:46;;;;;;;26.23;16.40;;;;;;;22.02;65.18;101419.22;5014873;28;20061;-47
2023/06/29 06:10:11;;;;;;;24.77;15.88;;;;;;;22.03;65.08;101420.94;5011673;28;20045;-50
2023/06/29 06:12:36;;;;;;;24.33;16.13;;;;;;;22.02;65.53;101413.78;5020346;28;20038;-51
2023/06/29 06:15:02;;;;;;;25.05;16.50;;;;;;;22.02;65.02;101413.78;5015889;28;20042;-49
2023/06/29 06:17:27;;;;;;;23.83;15.63;;;;;;;22.02;65.13;101419.22;5014202;28;20504;-51
2023/06/29 06:19:54;;;;;;;25.13;16.88;;;;;;;22.02;65.46;101420.06;5015008;28;20590;-51
2023/06/29 06:22:20;;;;;;;24.13;16.15;;;;;;;22.02;64.89;101417.34;5013608;28;20033;-49
2023/06/29 06:24:45;;;;;;;24.80;16.52;;;;;;;22.04;64.82;101419.91;5019799;28;20392;-46
2023/06/29 06:27:11;;;;;;;23.00;16.83;;;;;;;22.04;64.88;101422.63;5018693;28;20053;-51
2023/06/29 06:29:36;;;;;;;20.85;15.45;;;;;;;22.03;65.32;101416.34;5017268;28;20138;-50
2023/06/29 06:32:02;;;;;;;22.73;15.88;;;;;;;22.04;64.67;101411.78;5014753;28;20065;-50
2023/06/29 06:34:30;;;;;;;20.38;15.50;;;;;;;22.04;64.60;101422.63;5013581;28;20030;-50
2023/06/29 06:36:57;;;;;;;22.10;15.98;;;;;;;22.03;65.03;101413.66;5022787;28;20510;-50
2023/06/29 06:39:22;;;;;;;24.58;15.63;;;;;;;22.04;65.04;101409.91;5015174;28;20037;-48
2023/06/29 06:41:47;;;;;;;22.05;15.02;;;;;;;22.06;64.85;101420.59;5015570;28;20034;-50
2023/06/29 06:44:13;;;;;;;25.17;15.57;;;;;;;22.06;64.84;101416.03;5017536;28;20080;-50
2023/06/29 06:46:38;;;;;;;22.17;16.10;;;;;;;22.06;64.94;101415.19;5020883;28;20045;-51
2023/06/29 06:49:04;;;;;;;21.98;15.65;;;;;;;22.06;64.90;101421.44;5019831;28;20076;-47
2023/06/29 06:51:29;;;;;;;21.38;15.13;;;;;;;22.08;65.05;101412.31;5011951;28;20551;-47
2023/06/29 06:53:55;;;;;;;20.35;14.82;;;;;;;22.09;64.66;101408.59;5017806;28;20037;-47
2023/06/29 06:56:22;;;;;;;20.98;14.35;;;;;;;22.08;64.41;101410.44;5018169;28;20056;-49
2023/06/29 06:58:48;;;;;;;21.02;14.98;;;;;;;22.08;64.65;101415.88;5011208;28;20037;-50
2023/06/29 07:01:13;;;;;;;21.55;14.73;;;;;;;22.10;64.27;101407.56;5013219;28;20056;-48
2023/06/29 07:03:39;;;;;;;20.38;15.38;;;;;;;22.10;64.70;101410.28;5013446;28;20125;-50
2023/06/29 07:06:04;;;;;;;22.65;15.68;;;;;;;22.11;64.43;101414.72;5011763;28;20359;-51
2023/06/29 07:08:32;;;;;;;21.13;14.95;;;;;;;22.12;64.47;101409.09;5016596;28;20040;-50
2023/06/29 07:10:57;;;;;;;20.10;14.80;;;;;;;22.12;64.67;101409.09;5009804;28;20108;-49
2023/06/29 07:13:24;;;;;;;21.45;15.35;;;;;;;22.14;64.23;101406.25;5013906;28;20163;-45
2023/06/29 07:15:49;;;;;;;20.17;14.20;;;;;;;22.15;64.38;101414.22;5011740;28;20038;-46
2023/06/29 07:18:15;;;;;;;20.45;14.50;;;;;;;22.15;64.16;101411.50;5012245;28;20045;-49
2023/06/29 07:20:40;;;;;;;18.92;14.23;;;;;;;22.16;63.64;101402.38;5013574;28;20619;-47
2023/06/29 07:23:05;;;;;;;19.05;14.20;;;;;;;22.17;63.59;101409.50;5014110;28;20037;-46
2023/06/29 07:25:31;;;;;;;19.23;14.63;;;;;;;22.18;63.55;101410.31;5012197;28;20026;-46
2023/06/29 07:27:56;;;;;;;18.33;13.50;;;;;;;22.18;63.44;101408.50;5016549;28;20037;-47
2023/06/29 07:30:21;;;;;;;18.80;13.43;;;;;;;22.19;63.59;101407.47;5013532;28;20467;-48
2023/06/29 07:32:47;;;;;;;17.67;13.20;;;;;;;22.20;63.44;101408.31;5014559;28;20115;-46
2023/06/29 07:35:12;;;;;;;18.08;13.23;;;;;;;22.20;62.92;101402.88;5012496;28;20068;-49
2023/06/29 07:37:38;;;;;;;18.52;12.82;;;;;;;22.20;63.18;101401.03;5016559;28;20033;-50
2023/06/29 07:40:04;;;;;;;21.40;13.20;;;;;;;22.21;63.41;101404.59;5013692;28;20017;-49
2023/06/29 07:42:30;;;;;;;19.63;13.32;;;;;;;22.22;62.87;101406.31;5010248;28;20038;-46
2023/06/29 07:44:55;;;;;;;17.65;13.63;;;;;;;22.21;63.29;101402.72;5009931;28;20037;-45
2023/06/29 07:47:21;;;;;;;19.08;13.60;;;;;;;22.22;63.37;101390.88;5010458;28;20034;-47
2023/06/29 07:49:46;;;;;;;16.58;12.63;;;;;;;22.22;62.78;101396.31;5009368;28;20527;-45
2023/06/29 07:52:11;;;;;;;18.92;12.93;;;;;;;22.23;63.28;101394.44;5006343;28;20443;-45
2023/06/29 07:54:37;;;;;;;17.83;13.38;;;;;;;22.23;62.67;101389.84;5012387;28;20025;-45
2023/06/29 07:57:02;;;;;;;19.33;13.23;;;;;;;22.24;62.61;101393.44;5010729;28;20041;-46
2023/06/29 07:59:28;;;;;;;20.70;13.98;;;;;;;22.24;63.00;101396.16;5011367;28;20361;-45
2023/06/29 08:01:53;;;;;;;17.75;12.85;;;;;;;22.24;62.92;101394.28;5011606;28;20076;-49
2023/06/29 08:04:18;;;;;;;18.38;12.95;;;;;;;22.25;62.88;101387.00;5009777;28;20041;-47
2023/06/29 08:06:44;;;;;;;17.55;13.05;;;;;;;22.27;63.09;101395.00;5013206;28;20042;-49
2023/06/29 08:09:12;;;;;;;17.75;13.63;;;;;;;22.25;62.73;101387.00;5012533;28;20501;-48
2023/06/29 08:11:38;;;;;;;15.10;12.57;;;;;;;22.26;62.96;101394.16;5010864;28;20033;-48
2023/06/29 08:14:04;;;;;;;18.35;12.98;;;;;;;22.27;63.08;101395.00;5014927;28;20033;-45
2023/06/29 08:16:30;;;;;;;17.33;13.43;;;;;;;22.27;62.58;101386.84;5010464;28;20054;-48
2023/06/29 08:18:56;;;;;;;16.67;11.85;;;;;;;22.27;62.76;101389.56;5011679;28;20055;-47
2023/06/29 08:21:21;;;;;;;18.17;11.95;;;;;;;22.28;62.61;101386.69;5012662;28;20042;-45
2023/06/29 08:23:49;;;;;;;15.90;12.43;;;;;;;22.29;62.56;101390.25;5013975;28;20049;-46
2023/06/29 08:26:15;;;;;;;19.48;13.20;;;;;;;22.29;62.51;101384.84;5015377;28;20030;-46
2023/06/29 08:28:40;;;;;;;16.90;12.55;;;;;;;22.28;62.70;101384.00;5012559;28;20045;-46
2023/06/29 08:31:05;;;;;;;16.75;12.40;;;;;;;22.30;62.69;101391.97;5007605;28;20504;-47
2023/06/29 08:33:31;;;;;;;15.90;11.98;;;;;;;22.30;62.29;101389.25;5013372;28;20037;-46
2023/06/29 08:35:56;;;;;;;16.38;12.52;;;;;;;22.29;62.20;101399.22;5008672;28;20045;-47
2023/06/29 08:38:22;;;;;;;16.23;12.10;;;;;;;22.30;62.22;101389.25;5009838;28;20037;-48
2023/06/29 08:40:47;;;;;;;14.43;11.23;;;;;;;22.31;62.16;101396.38;5011224;28;20033;-47
2023/06/29 08:43:15;;;;;;;15.32;11.60;;;;;;;22.31;62.44;101390.94;5014102;28;20038;-46
2023/06/29 08:45:42;;;;;;;16.65;11.82;;;;;;;22.31;62.46;101385.50;5014598;28;20121;-47
2023/06/29 08:48:09;;;;;;;18.15;12.10;;;;;;;22.32;62.67;101387.22;5015433;28;20029;-46
2023/06/29 08:50:36;;;;;;;14.70;11.15;;;;;;;22.32;62.02;101390.78;5013821;28;20773;-46
2023/06/29 08:53:02;;;;;;;18.73;12.27;;;;;;;22.32;62.10;101388.06;5013278;28;20033;-47
2023/06/29 08:55:28;;;;;;;16.50;12.32;;;;;;;22.32;62.07;101393.50;5009113;28;20520;-45
2023/06/29 08:57:54;;;;;;;15.52;12.63;;;;;;;22.33;62.25;101388.91;5015755;28;20526;-46
2023/06/29 09:00:22;;;;;;;15.73;11.45;;;;;;;22.34;62.10;101385.22;5012784;28;20038;-45
2023/06/29 09:02:51;;;;;;;14.60;10.80;;;;;;;22.35;62.47;101378.75;5009813;28;20042;-46
2023/06/29 09:05:17;;;;;;;16.42;12.18;;;;;;;22.34;62.19;101380.63;5011829;28;20109;-47
2023/06/29 09:07:42;;;;;;;15.02;11.93;;;;;;;22.35;62.15;101379.63;5012295;28;20133;-46
2023/06/29 09:10:10;;;;;;;15.40;11.95;;;;;;;22.36;62.36;101375.03;5010856;28;20038;-49
2023/06/29 09:12:36;;;;;;;15.55;12.00;;;;;;;22.37;62.25;101379.44;5013501;28;20041;-48
2023/06/29 09:15:07;;;;;;;14.65;11.32;;;;;;;22.38;62.06;101375.72;5013004;28;20121;-47
2023/06/29 09:17:33;;;;;;;14.35;11.02;;;;;;;22.39;62.19;101371.97;5017200;28;20061;-46
2023/06/29 09:20:00;;;;;;;15.35;12.02;;;;;;;22.38;61.82;101379.28;5017758;28;20021;-46
2023/06/29 09:22:27;;;;;;;15.48;11.63;;;;;;;22.38;62.30;101375.72;5017497;28;20046;-46
2023/06/29 09:24:58;;;;;;;15.43;11.77;;;;;;;22.38;62.31;101368.44;5018373;28;20545;-47
2023/06/29 09:27:25;;;;;;;;;;;;;;;22.45;62.11;101374.06;5020712;28;20061;-48
2023/06/29 09:29:52;;;;;;;15.48;11.32;;;;;;;22.41;62.00;101375.41;5016751;28;20383;-50
2023/06/29 09:32:17;;;;;;;15.02;11.40;;;;;;;22.41;61.85;101375.41;5017395;28;20061;-46
2023/06/29 09:34:48;;;;;;;14.75;11.23;;;;;;;22.40;61.98;101377.25;5016655;28;20227;-46
2023/06/29 09:37:16;;;;;;;14.27;10.97;;;;;;;22.41;61.77;101380.84;5014053;28;20391;-46
2023/06/29 09:39:58;;;;;;;16.05;11.57;;;;;;;22.41;61.67;101368.13;5016100;28;20053;-47
2023/06/29 09:42:28;;;;;;;17.23;11.77;;;;;;;22.41;62.03;101376.25;5013736;28;20041;-46
2023/06/29 09:44:57;;;;;;;16.38;11.20;;;;;;;22.41;61.53;101369.97;5016772;28;20365;-45
2023/06/29 09:47:23;;;;;;;14.73;11.60;;;;;;;22.42;61.49;101360.81;5015595;28;20033;-45
2023/06/29 09:49:49;;;;;;;15.88;11.02;;;;;;;22.41;61.55;101367.28;5019384;28;20042;-51
2023/06/29 09:52:16;;;;;;;13.95;10.85;;;;;;;22.42;61.59;101377.94;5017728;28;20806;-49
2023/06/29 09:54:42;;;;;;;13.52;11.27;;;;;;;22.43;62.13;101384.22;5014575;28;20129;-48
2023/06/29 09:57:10;;;;;;;13.57;11.15;;;;;;;22.41;61.97;101376.25;5012938;28;20507;-46
2023/06/29 09:59:38;;;;;;;14.68;10.98;;;;;;;22.43;61.60;101381.53;5022737;28;20021;-46
2023/06/29 10:02:03;;;;;;;14.85;11.30;;;;;;;22.43;61.99;101373.38;5017596;28;20030;-47
2023/06/29 10:04:29;;;;;;;16.73;11.15;;;;;;;22.44;61.87;101364.22;5014972;28;20032;-47
2023/06/29 10:07:08;;;;;;;14.43;11.30;;;;;;;22.44;61.84;101375.06;5015162;28;20037;-45
2023/06/29 10:09:39;;;;;;;14.13;10.32;;;;;;;22.45;61.69;101365.94;5016875;28;20026;-46
2023/06/29 10:12:10;;;;;;;14.98;10.88;;;;;;;22.45;61.42;101382.22;5013255;28;20484;-49
2023/06/29 10:14:37;;;;;;;13.32;11.23;;;;;;;22.45;61.64;101374.06;5016351;28;20409;-45
2023/06/29 10:17:08;;;;;;;13.52;10.63;;;;;;;22.45;61.51;101365.94;5018989;28;20053;-46
2023/06/29 10:19:36;;;;;;;14.27;11.35;;;;;;;22.46;61.40;101373.03;5013953;28;20361;-49
2023/06/29 10:22:14;;;;;;;14.95;11.60;;;;;;;22.47;61.54;101366.59;5018842;28;20064;-45
2023/06/29 10:24:51;;;;;;;15.93;11.65;;;;;;;22.48;61.69;101370.16;5020454;28;20057;-45
2023/06/29 10:27:18;;;;;;;14.52;10.60;;;;;;;22.46;61.56;101375.75;5016411;28;20077;-46
2023/06/29 10:29:45;;;;;;;14.40;11.38;;;;;;;22.47;61.25;101369.31;5016777;28;20476;-46
2023/06/29 10:32:29;;;;;;;13.52;11.00;;;;;;;22.50;61.71;101371.69;5013807;28;20493;-46
2023/06/29 10:35:13;;;;;;;12.90;10.38;;;;;;;22.50;61.36;101368.13;5020059;28;20037;-46
2023/06/29 10:37:41;;;;;;;14.75;10.45;;;;;;;22.49;61.25;101369.16;5015421;28;20029;-46
2023/06/29 10:40:18;;;;;;;13.48;10.63;;;;;;;22.50;61.41;101368.97;5016990;28;20033;-50
2023/06/29 10:42:47;;;;;;;13.25;10.43;;;;;;;22.50;61.22;101373.56;5018717;28;20043;-49
2023/06/29 10:45:16;;;;;;;14.07;10.80;;;;;;;22.50;61.10;101368.13;5016441;28;20033;-48
2023/06/29 10:47:41;;;;;;;14.93;10.75;;;;;;;22.50;61.41;101374.41;5013309;28;20490;-49
2023/06/29 10:50:09;;;;;;;15.68;10.75;;;;;;;22.50;60.96;101363.53;5017737;28;20030;-46
2023/06/29 10:52:36;;;;;;;15.32;11.15;;;;;;;22.51;61.07;101367.97;5014482;28;20026;-48
2023/06/29 10:55:20;;;;;;;13.40;10.73;;;;;;;22.52;61.57;101364.22;5015172;28;20044;-49
2023/06/29 10:57:58;;;;;;;13.65;10.60;;;;;;;22.52;61.28;101366.94;5012662;28;20041;-50
2023/06/29 11:00:27;;;;;;;13.50;11.25;;;;;;;22.52;61.42;101364.22;5020390;28;20021;-50
2023/06/29 11:02:54;;;;;;;13.13;10.93;;;;;;;22.52;61.53;101366.94;5014122;28;20408;-51
2023/06/29 11:05:21;;;;;;;14.48;10.57;;;;;;;22.53;60.99;101367.81;5017092;28;20277;-45
2023/06/29 11:07:52;;;;;;;14.40;10.95;;;;;;;22.54;61.19;101359.53;5015208;28;20068;-49